UHHH/KHV METAR and TAF weather

Enter ICAO airport designator
Station Type Date Time Source
UHHH METAR 2019/06/17 06:30 UTC NOAA

UHHH 170630Z 02003MPS CAVOK 20/05 Q1007 R23L/090060 NOSIG RMK QFE749/0999


Station Type Date Time Source
UHHH Decoded METAR 2019/06/17 06:30 UTC NOAA

Habarovsk, Russia (UHHH) 48-31N 135-10E 76M
Jun 17, 2019 - 02:30 AM EDT / 2019.06.17 0630 UTC
Wind: from the NNE (020 degrees) at 7 MPH (6 KT):0
Visibility: greater than 7 mile(s):0
Temperature: 68 F (20 C)
Dew Point: 41 F (5 C)
Relative Humidity: 37%
Pressure (altimeter): 29.74 in. Hg (1007 hPa)
ob: UHHH 170630Z 02003MPS CAVOK 20/05 Q1007 R23L/090060 NOSIG RMK QFE749/0999
cycle: 6

Station Type Date Time Source
UHHH TAF 2019/06/17 06:24 UTC NOAA

TAF TAF UHHH 170452Z 1706/1812 04003MPS 9999 SCT030
TEMPO 1706/1724 3000 -TSRA SCT006 SCT020CB

Example: see airport list